sensor_id;sensor_type;location;lat;lon;timestamp;P1;durP1;ratioP1;P2;durP2;ratioP2
40919;SDS011;26652;50.280;19.026;2022-07-06T00:00:54;4.23;;;2.33;;
40919;SDS011;26652;50.280;19.026;2022-07-06T00:03:34;4.12;;;2.47;;
40919;SDS011;26652;50.280;19.026;2022-07-06T00:06:18;5.75;;;2.42;;
40919;SDS011;26652;50.280;19.026;2022-07-06T00:08:41;5.85;;;3.30;;
40919;SDS011;26652;50.280;19.026;2022-07-06T00:11:21;5.50;;;3.10;;
40919;SDS011;26652;50.280;19.026;2022-07-06T00:13:58;4.57;;;2.53;;
40919;SDS011;26652;50.280;19.026;2022-07-06T00:16:32;7.82;;;3.22;;
40919;SDS011;26652;50.280;19.026;2022-07-06T00:19:15;2.90;;;1.83;;
40919;SDS011;26652;50.280;19.026;2022-07-06T00:21:42;2.75;;;2.10;;
40919;SDS011;26652;50.280;19.026;2022-07-06T00:24:18;5.60;;;2.53;;
40919;SDS011;26652;50.280;19.026;2022-07-06T00:26:45;6.00;;;4.10;;
40919;SDS011;26652;50.280;19.026;2022-07-06T00:29:14;4.73;;;3.43;;
40919;SDS011;26652;50.280;19.026;2022-07-06T00:31:36;3.35;;;2.10;;
40919;SDS011;26652;50.280;19.026;2022-07-06T00:33:44;4.82;;;3.03;;
40919;SDS011;26652;50.280;19.026;2022-07-06T00:36:21;3.63;;;2.33;;
40919;SDS011;26652;50.280;19.026;2022-07-06T00:38:41;3.03;;;2.50;;
40919;SDS011;26652;50.280;19.026;2022-07-06T00:41:07;6.15;;;3.00;;
40919;SDS011;26652;50.280;19.026;2022-07-06T00:43:19;5.60;;;2.90;;
40919;SDS011;26652;50.280;19.026;2022-07-06T00:45:49;4.63;;;2.10;;
40919;SDS011;26652;50.280;19.026;2022-07-06T00:48:30;4.37;;;2.87;;
40919;SDS011;26652;50.280;19.026;2022-07-06T00:50:56;5.25;;;2.37;;
40919;SDS011;26652;50.280;19.026;2022-07-06T00:53:06;4.30;;;2.73;;
40919;SDS011;26652;50.280;19.026;2022-07-06T00:55:44;8.52;;;3.85;;
40919;SDS011;26652;50.280;19.026;2022-07-06T00:58:10;12.20;;;2.10;;
40919;SDS011;26652;50.280;19.026;2022-07-06T01:00:19;7.60;;;2.90;;
40919;SDS011;26652;50.280;19.026;2022-07-06T01:02:51;6.60;;;2.70;;
40919;SDS011;26652;50.280;19.026;2022-07-06T01:05:19;6.75;;;3.25;;
40919;SDS011;26652;50.280;19.026;2022-07-06T01:07:56;5.80;;;2.80;;
40919;SDS011;26652;50.280;19.026;2022-07-06T01:10:31;4.47;;;2.65;;
40919;SDS011;26652;50.280;19.026;2022-07-06T01:13:04;8.10;;;4.37;;
40919;SDS011;26652;50.280;19.026;2022-07-06T01:15:22;10.98;;;3.65;;
40919;SDS011;26652;50.280;19.026;2022-07-06T01:17:39;5.18;;;3.10;;
40919;SDS011;26652;50.280;19.026;2022-07-06T01:20:10;6.60;;;3.00;;
40919;SDS011;26652;50.280;19.026;2022-07-06T01:22:33;5.10;;;4.60;;
40919;SDS011;26652;50.280;19.026;2022-07-06T01:24:58;7.95;;;4.32;;
40919;SDS011;26652;50.280;19.026;2022-07-06T01:27:48;6.93;;;3.90;;
40919;SDS011;26652;50.280;19.026;2022-07-06T01:30:08;7.05;;;2.65;;
40919;SDS011;26652;50.280;19.026;2022-07-06T01:32:39;5.37;;;3.65;;
40919;SDS011;26652;50.280;19.026;2022-07-06T01:34:59;4.43;;;2.90;;
40919;SDS011;26652;50.280;19.026;2022-07-06T01:37:20;6.22;;;3.25;;
40919;SDS011;26652;50.280;19.026;2022-07-06T01:39:31;5.97;;;3.97;;
40919;SDS011;26652;50.280;19.026;2022-07-06T01:41:57;6.20;;;4.70;;
40919;SDS011;26652;50.280;19.026;2022-07-06T01:44:25;3.58;;;2.03;;
40919;SDS011;26652;50.280;19.026;2022-07-06T01:46:50;4.03;;;2.20;;
40919;SDS011;26652;50.280;19.026;2022-07-06T01:49:31;7.15;;;3.65;;
40919;SDS011;26652;50.280;19.026;2022-07-06T01:51:53;6.43;;;3.53;;
40919;SDS011;26652;50.280;19.026;2022-07-06T01:54:16;4.20;;;2.37;;
40919;SDS011;26652;50.280;19.026;2022-07-06T01:56:24;4.45;;;2.45;;
40919;SDS011;26652;50.280;19.026;2022-07-06T01:58:56;4.77;;;3.17;;
40919;SDS011;26652;50.280;19.026;2022-07-06T02:01:28;6.03;;;3.60;;
40919;SDS011;26652;50.280;19.026;2022-07-06T02:03:35;7.37;;;4.75;;
40919;SDS011;26652;50.280;19.026;2022-07-06T02:05:55;2.78;;;1.92;;
40919;SDS011;26652;50.280;19.026;2022-07-06T02:08:03;4.65;;;2.83;;
40919;SDS011;26652;50.280;19.026;2022-07-06T02:10:26;8.02;;;3.00;;
40919;SDS011;26652;50.280;19.026;2022-07-06T02:12:34;6.25;;;2.97;;
40919;SDS011;26652;50.280;19.026;2022-07-06T02:15:09;3.97;;;2.65;;
40919;SDS011;26652;50.280;19.026;2022-07-06T02:17:42;4.12;;;3.37;;
40919;SDS011;26652;50.280;19.026;2022-07-06T02:19:50;3.05;;;2.05;;
40919;SDS011;26652;50.280;19.026;2022-07-06T02:22:31;5.37;;;3.62;;
40919;SDS011;26652;50.280;19.026;2022-07-06T02:25:00;3.72;;;2.33;;
40919;SDS011;26652;50.280;19.026;2022-07-06T02:27:32;4.97;;;2.90;;
40919;SDS011;26652;50.280;19.026;2022-07-06T02:29:44;5.93;;;3.60;;
40919;SDS011;26652;50.280;19.026;2022-07-06T02:32:24;7.05;;;3.40;;
40919;SDS011;26652;50.280;19.026;2022-07-06T02:34:50;3.05;;;2.33;;
40919;SDS011;26652;50.280;19.026;2022-07-06T02:36:58;4.78;;;3.25;;
40919;SDS011;26652;50.280;19.026;2022-07-06T02:39:31;4.20;;;2.45;;
40919;SDS011;26652;50.280;19.026;2022-07-06T02:41:59;4.50;;;2.60;;
40919;SDS011;26652;50.280;19.026;2022-07-06T02:44:06;4.80;;;3.70;;
40919;SDS011;26652;50.280;19.026;2022-07-06T02:46:32;4.53;;;2.28;;
40919;SDS011;26652;50.280;19.026;2022-07-06T02:48:45;7.90;;;3.05;;
40919;SDS011;26652;50.280;19.026;2022-07-06T02:51:21;2.17;;;1.43;;
40919;SDS011;26652;50.280;19.026;2022-07-06T02:53:52;5.20;;;3.15;;
40919;SDS011;26652;50.280;19.026;2022-07-06T02:56:29;6.85;;;2.95;;
40919;SDS011;26652;50.280;19.026;2022-07-06T02:59:01;3.50;;;1.95;;
40919;SDS011;26652;50.280;19.026;2022-07-06T03:01:33;5.97;;;2.80;;
40919;SDS011;26652;50.280;19.026;2022-07-06T03:03:41;5.75;;;2.83;;
40919;SDS011;26652;50.280;19.026;2022-07-06T03:06:04;3.95;;;1.90;;
40919;SDS011;26652;50.280;19.026;2022-07-06T03:08:12;4.60;;;2.12;;
40919;SDS011;26652;50.280;19.026;2022-07-06T03:10:38;3.17;;;2.50;;
40919;SDS011;26652;50.280;19.026;2022-07-06T03:13:09;3.37;;;1.80;;
40919;SDS011;26652;50.280;19.026;2022-07-06T03:15:35;5.50;;;3.87;;
40919;SDS011;26652;50.280;19.026;2022-07-06T03:17:42;4.47;;;2.30;;
40919;SDS011;26652;50.280;19.026;2022-07-06T03:20:05;4.70;;;3.00;;
40919;SDS011;26652;50.280;19.026;2022-07-06T03:22:13;5.00;;;2.95;;
40919;SDS011;26652;50.280;19.026;2022-07-06T03:24:45;3.00;;;1.83;;
40919;SDS011;26652;50.280;19.026;2022-07-06T03:27:09;3.55;;;2.22;;
40919;SDS011;26652;50.280;19.026;2022-07-06T03:29:19;6.47;;;2.73;;
40919;SDS011;26652;50.280;19.026;2022-07-06T03:31:50;4.70;;;2.80;;
40919;SDS011;26652;50.280;19.026;2022-07-06T03:34:31;6.22;;;3.22;;
40919;SDS011;26652;50.280;19.026;2022-07-06T03:36:43;5.80;;;3.17;;
40919;SDS011;26652;50.280;19.026;2022-07-06T03:38:55;6.28;;;1.73;;
40919;SDS011;26652;50.280;19.026;2022-07-06T03:41:18;4.93;;;2.30;;
40919;SDS011;26652;50.280;19.026;2022-07-06T03:43:29;3.87;;;2.80;;
40919;SDS011;26652;50.280;19.026;2022-07-06T03:45:54;4.37;;;2.12;;
40919;SDS011;26652;50.280;19.026;2022-07-06T03:48:32;5.47;;;1.98;;
40919;SDS011;26652;50.280;19.026;2022-07-06T03:50:40;4.95;;;2.45;;
40919;SDS011;26652;50.280;19.026;2022-07-06T03:53:04;2.92;;;2.20;;
40919;SDS011;26652;50.280;19.026;2022-07-06T03:55:26;6.90;;;2.90;;
40919;SDS011;26652;50.280;19.026;2022-07-06T03:57:58;8.18;;;4.57;;
40919;SDS011;26652;50.280;19.026;2022-07-06T04:00:26;4.62;;;3.30;;
40919;SDS011;26652;50.280;19.026;2022-07-06T04:02:51;3.97;;;2.62;;
40919;SDS011;26652;50.280;19.026;2022-07-06T04:05:13;4.55;;;2.12;;
40919;SDS011;26652;50.280;19.026;2022-07-06T04:07:37;2.45;;;1.50;;
40919;SDS011;26652;50.280;19.026;2022-07-06T04:09:46;4.62;;;2.25;;
40919;SDS011;26652;50.280;19.026;2022-07-06T04:12:12;6.47;;;3.78;;
40919;SDS011;26652;50.280;19.026;2022-07-06T04:14:32;3.80;;;1.92;;
40919;SDS011;26652;50.280;19.026;2022-07-06T04:16:40;6.03;;;3.15;;
40919;SDS011;26652;50.280;19.026;2022-07-06T04:19:32;2.95;;;2.35;;
40919;SDS011;26652;50.280;19.026;2022-07-06T04:21:55;7.00;;;2.30;;
40919;SDS011;26652;50.280;19.026;2022-07-06T04:24:22;3.70;;;1.77;;
40919;SDS011;26652;50.280;19.026;2022-07-06T04:26:38;3.42;;;2.10;;
40919;SDS011;26652;50.280;19.026;2022-07-06T04:29:00;4.82;;;2.80;;
40919;SDS011;26652;50.280;19.026;2022-07-06T04:31:14;5.73;;;3.07;;
40919;SDS011;26652;50.280;19.026;2022-07-06T04:33:46;3.50;;;2.70;;
40919;SDS011;26652;50.280;19.026;2022-07-06T04:36:01;3.93;;;2.47;;
40919;SDS011;26652;50.280;19.026;2022-07-06T04:38:13;2.40;;;1.27;;
40919;SDS011;26652;50.280;19.026;2022-07-06T04:40:24;5.10;;;2.42;;
40919;SDS011;26652;50.280;19.026;2022-07-06T04:42:54;2.93;;;2.47;;
40919;SDS011;26652;50.280;19.026;2022-07-06T04:45:26;2.63;;;2.03;;
40919;SDS011;26652;50.280;19.026;2022-07-06T04:47:35;4.62;;;2.62;;
40919;SDS011;26652;50.280;19.026;2022-07-06T04:49:54;2.33;;;2.13;;
40919;SDS011;26652;50.280;19.026;2022-07-06T04:52:19;3.23;;;1.80;;
40919;SDS011;26652;50.280;19.026;2022-07-06T04:54:27;6.82;;;3.80;;
40919;SDS011;26652;50.280;19.026;2022-07-06T04:56:56;4.60;;;3.10;;
40919;SDS011;26652;50.280;19.026;2022-07-06T04:59:11;4.97;;;3.47;;
40919;SDS011;26652;50.280;19.026;2022-07-06T05:01:33;7.10;;;3.30;;
40919;SDS011;26652;50.280;19.026;2022-07-06T05:04:02;4.57;;;2.60;;
40919;SDS011;26652;50.280;19.026;2022-07-06T05:06:22;2.10;;;1.90;;
40919;SDS011;26652;50.280;19.026;2022-07-06T05:08:36;6.83;;;3.17;;
40919;SDS011;26652;50.280;19.026;2022-07-06T05:11:08;6.43;;;5.60;;
40919;SDS011;26652;50.280;19.026;2022-07-06T05:13:43;3.57;;;1.90;;
40919;SDS011;26652;50.280;19.026;2022-07-06T05:16:04;4.07;;;1.70;;
40919;SDS011;26652;50.280;19.026;2022-07-06T05:18:11;3.63;;;2.20;;
40919;SDS011;26652;50.280;19.026;2022-07-06T05:20:41;5.85;;;4.22;;
40919;SDS011;26652;50.280;19.026;2022-07-06T05:22:50;4.68;;;2.92;;
40919;SDS011;26652;50.280;19.026;2022-07-06T05:25:15;3.10;;;1.27;;
40919;SDS011;26652;50.280;19.026;2022-07-06T05:27:23;7.97;;;3.92;;
40919;SDS011;26652;50.280;19.026;2022-07-06T05:29:54;10.63;;;5.43;;
40919;SDS011;26652;50.280;19.026;2022-07-06T05:32:24;5.28;;;4.12;;
40919;SDS011;26652;50.280;19.026;2022-07-06T05:34:53;7.28;;;3.72;;
40919;SDS011;26652;50.280;19.026;2022-07-06T05:37:02;5.25;;;3.08;;
40919;SDS011;26652;50.280;19.026;2022-07-06T05:39:28;11.07;;;4.50;;
40919;SDS011;26652;50.280;19.026;2022-07-06T05:41:54;10.30;;;4.30;;
40919;SDS011;26652;50.280;19.026;2022-07-06T05:44:24;6.55;;;3.17;;
40919;SDS011;26652;50.280;19.026;2022-07-06T05:46:31;5.55;;;3.15;;
40919;SDS011;26652;50.280;19.026;2022-07-06T05:49:01;6.40;;;4.00;;
40919;SDS011;26652;50.280;19.026;2022-07-06T05:51:12;6.40;;;2.95;;
40919;SDS011;26652;50.280;19.026;2022-07-06T05:53:35;3.50;;;2.40;;
40919;SDS011;26652;50.280;19.026;2022-07-06T05:56:17;7.40;;;3.10;;
40919;SDS011;26652;50.280;19.026;2022-07-06T05:58:58;3.70;;;2.67;;
40919;SDS011;26652;50.280;19.026;2022-07-06T06:01:23;8.27;;;4.27;;
40919;SDS011;26652;50.280;19.026;2022-07-06T06:03:46;6.57;;;3.07;;
40919;SDS011;26652;50.280;19.026;2022-07-06T06:06:10;4.60;;;2.95;;
40919;SDS011;26652;50.280;19.026;2022-07-06T06:08:23;5.70;;;3.00;;
40919;SDS011;26652;50.280;19.026;2022-07-06T06:10:53;7.30;;;3.60;;
40919;SDS011;26652;50.280;19.026;2022-07-06T06:13:21;7.32;;;2.87;;
40919;SDS011;26652;50.280;19.026;2022-07-06T06:18:28;7.93;;;4.00;;
40919;SDS011;26652;50.280;19.026;2022-07-06T06:21:10;7.05;;;4.78;;
40919;SDS011;26652;50.280;19.026;2022-07-06T06:23:50;6.32;;;4.00;;
40919;SDS011;26652;50.280;19.026;2022-07-06T06:26:21;10.15;;;5.20;;
40919;SDS011;26652;50.280;19.026;2022-07-06T06:28:55;7.93;;;5.97;;
40919;SDS011;26652;50.280;19.026;2022-07-06T06:31:33;7.90;;;4.65;;
40919;SDS011;26652;50.280;19.026;2022-07-06T06:33:55;8.98;;;4.80;;
40919;SDS011;26652;50.280;19.026;2022-07-06T06:36:11;8.63;;;4.73;;
40919;SDS011;26652;50.280;19.026;2022-07-06T06:38:36;6.83;;;4.30;;
40919;SDS011;26652;50.280;19.026;2022-07-06T06:41:13;4.47;;;3.28;;
40919;SDS011;26652;50.280;19.026;2022-07-06T06:43:42;7.80;;;3.07;;
40919;SDS011;26652;50.280;19.026;2022-07-06T06:46:03;5.93;;;3.58;;
40919;SDS011;26652;50.280;19.026;2022-07-06T06:48:44;7.78;;;3.87;;
40919;SDS011;26652;50.280;19.026;2022-07-06T06:51:25;7.10;;;3.80;;
40919;SDS011;26652;50.280;19.026;2022-07-06T06:53:37;8.93;;;4.87;;
40919;SDS011;26652;50.280;19.026;2022-07-06T06:56:21;3.58;;;2.30;;
40919;SDS011;26652;50.280;19.026;2022-07-06T06:58:55;7.12;;;2.97;;
40919;SDS011;26652;50.280;19.026;2022-07-06T07:01:08;3.42;;;2.72;;
40919;SDS011;26652;50.280;19.026;2022-07-06T07:03:36;3.03;;;2.05;;
40919;SDS011;26652;50.280;19.026;2022-07-06T07:06:08;5.25;;;3.25;;
40919;SDS011;26652;50.280;19.026;2022-07-06T07:08:17;2.92;;;1.73;;
40919;SDS011;26652;50.280;19.026;2022-07-06T07:10:52;7.22;;;3.10;;
40919;SDS011;26652;50.280;19.026;2022-07-06T07:13:20;3.00;;;2.10;;
40919;SDS011;26652;50.280;19.026;2022-07-06T07:15:45;5.60;;;3.05;;
40919;SDS011;26652;50.280;19.026;2022-07-06T07:17:52;2.40;;;1.42;;
40919;SDS011;26652;50.280;19.026;2022-07-06T07:20:24;4.30;;;2.30;;
40919;SDS011;26652;50.280;19.026;2022-07-06T07:22:49;2.72;;;1.73;;
40919;SDS011;26652;50.280;19.026;2022-07-06T07:25:18;3.00;;;2.10;;
40919;SDS011;26652;50.280;19.026;2022-07-06T07:27:27;3.90;;;2.30;;
40919;SDS011;26652;50.280;19.026;2022-07-06T07:29:53;3.00;;;1.92;;
40919;SDS011;26652;50.280;19.026;2022-07-06T07:32:00;3.55;;;2.55;;
40919;SDS011;26652;50.280;19.026;2022-07-06T07:34:20;4.00;;;2.80;;
40919;SDS011;26652;50.280;19.026;2022-07-06T07:36:32;5.10;;;2.28;;
40919;SDS011;26652;50.280;19.026;2022-07-06T07:39:06;2.50;;;1.90;;
40919;SDS011;26652;50.280;19.026;2022-07-06T07:41:48;4.85;;;3.15;;
40919;SDS011;26652;50.280;19.026;2022-07-06T07:44:18;3.33;;;2.22;;
40919;SDS011;26652;50.280;19.026;2022-07-06T07:47:09;3.78;;;2.92;;
40919;SDS011;26652;50.280;19.026;2022-07-06T07:49:30;7.87;;;3.60;;
40919;SDS011;26652;50.280;19.026;2022-07-06T07:52:02;4.43;;;2.90;;
40919;SDS011;26652;50.280;19.026;2022-07-06T07:54:14;5.87;;;2.40;;
40919;SDS011;26652;50.280;19.026;2022-07-06T07:56:28;3.55;;;2.15;;
40919;SDS011;26652;50.280;19.026;2022-07-06T07:59:12;5.40;;;2.70;;
40919;SDS011;26652;50.280;19.026;2022-07-06T08:01:23;3.62;;;2.83;;
40919;SDS011;26652;50.280;19.026;2022-07-06T08:03:46;4.43;;;1.73;;
40919;SDS011;26652;50.280;19.026;2022-07-06T08:06:18;4.80;;;2.65;;
40919;SDS011;26652;50.280;19.026;2022-07-06T08:08:27;4.37;;;3.03;;
40919;SDS011;26652;50.280;19.026;2022-07-06T08:10:42;4.95;;;3.05;;
40919;SDS011;26652;50.280;19.026;2022-07-06T08:12:55;2.97;;;2.17;;
40919;SDS011;26652;50.280;19.026;2022-07-06T08:15:23;2.60;;;1.58;;
40919;SDS011;26652;50.280;19.026;2022-07-06T08:17:57;2.90;;;1.58;;
40919;SDS011;26652;50.280;19.026;2022-07-06T08:20:31;2.80;;;2.20;;
40919;SDS011;26652;50.280;19.026;2022-07-06T08:22:54;3.35;;;2.10;;
40919;SDS011;26652;50.280;19.026;2022-07-06T08:25:03;3.70;;;1.85;;
40919;SDS011;26652;50.280;19.026;2022-07-06T08:27:20;3.10;;;1.85;;
40919;SDS011;26652;50.280;19.026;2022-07-06T08:29:43;1.95;;;1.25;;
40919;SDS011;26652;50.280;19.026;2022-07-06T08:31:53;2.50;;;1.70;;
40919;SDS011;26652;50.280;19.026;2022-07-06T08:34:21;2.50;;;0.90;;
40919;SDS011;26652;50.280;19.026;2022-07-06T08:36:44;1.40;;;1.00;;
40919;SDS011;26652;50.280;19.026;2022-07-06T08:39:07;2.30;;;1.63;;
40919;SDS011;26652;50.280;19.026;2022-07-06T08:41:16;2.08;;;1.20;;
40919;SDS011;26652;50.280;19.026;2022-07-06T08:43:42;2.20;;;1.10;;
40919;SDS011;26652;50.280;19.026;2022-07-06T08:45:57;1.60;;;0.60;;
40919;SDS011;26652;50.280;19.026;2022-07-06T08:48:19;2.00;;;1.00;;
40919;SDS011;26652;50.280;19.026;2022-07-06T08:50:26;2.70;;;1.90;;
40919;SDS011;26652;50.280;19.026;2022-07-06T08:52:51;1.65;;;0.70;;
40919;SDS011;26652;50.280;19.026;2022-07-06T08:55:22;1.20;;;0.60;;
40919;SDS011;26652;50.280;19.026;2022-07-06T08:57:37;1.75;;;0.60;;
40919;SDS011;26652;50.280;19.026;2022-07-06T09:00:09;1.58;;;0.80;;
40919;SDS011;26652;50.280;19.026;2022-07-06T09:02:30;1.55;;;0.90;;
40919;SDS011;26652;50.280;19.026;2022-07-06T09:05:13;2.00;;;1.10;;
40919;SDS011;26652;50.280;19.026;2022-07-06T09:07:36;1.10;;;0.40;;
40919;SDS011;26652;50.280;19.026;2022-07-06T09:10:03;1.50;;;0.73;;
40919;SDS011;26652;50.280;19.026;2022-07-06T09:12:27;1.90;;;1.00;;
40919;SDS011;26652;50.280;19.026;2022-07-06T09:14:51;1.40;;;0.70;;
40919;SDS011;26652;50.280;19.026;2022-07-06T09:17:02;1.60;;;0.85;;
40919;SDS011;26652;50.280;19.026;2022-07-06T09:19:27;2.15;;;0.95;;
40919;SDS011;26652;50.280;19.026;2022-07-06T09:21:54;1.30;;;0.50;;
40919;SDS011;26652;50.280;19.026;2022-07-06T09:24:12;2.08;;;1.02;;
40919;SDS011;26652;50.280;19.026;2022-07-06T09:26:36;1.70;;;0.88;;
40919;SDS011;26652;50.280;19.026;2022-07-06T09:28:57;1.25;;;0.73;;
40919;SDS011;26652;50.280;19.026;2022-07-06T09:31:07;2.00;;;0.80;;
40919;SDS011;26652;50.280;19.026;2022-07-06T09:33:30;1.50;;;0.90;;
40919;SDS011;26652;50.280;19.026;2022-07-06T09:35:53;2.08;;;0.60;;
40919;SDS011;26652;50.280;19.026;2022-07-06T09:38:05;2.30;;;0.77;;
40919;SDS011;26652;50.280;19.026;2022-07-06T09:40:31;1.90;;;0.80;;
40919;SDS011;26652;50.280;19.026;2022-07-06T09:43:02;1.40;;;0.80;;
40919;SDS011;26652;50.280;19.026;2022-07-06T09:44:59;1.37;;;0.60;;
40919;SDS011;26652;50.280;19.026;2022-07-06T09:47:23;1.30;;;0.57;;
40919;SDS011;26652;50.280;19.026;2022-07-06T09:49:50;1.95;;;1.20;;
40919;SDS011;26652;50.280;19.026;2022-07-06T09:52:11;1.92;;;1.40;;
40919;SDS011;26652;50.280;19.026;2022-07-06T09:54:37;1.80;;;0.80;;
40919;SDS011;26652;50.280;19.026;2022-07-06T09:57:01;1.70;;;0.90;;
40919;SDS011;26652;50.280;19.026;2022-07-06T09:59:26;1.10;;;0.53;;
40919;SDS011;26652;50.280;19.026;2022-07-06T10:01:52;1.30;;;0.83;;
40919;SDS011;26652;50.280;19.026;2022-07-06T10:04:20;0.90;;;0.30;;
40919;SDS011;26652;50.280;19.026;2022-07-06T10:06:40;1.10;;;0.60;;
40919;SDS011;26652;50.280;19.026;2022-07-06T10:09:20;2.23;;;1.27;;
40919;SDS011;26652;50.280;19.026;2022-07-06T10:11:56;1.00;;;0.40;;
40919;SDS011;26652;50.280;19.026;2022-07-06T10:14:37;1.53;;;0.53;;
40919;SDS011;26652;50.280;19.026;2022-07-06T10:17:05;1.20;;;0.90;;
40919;SDS011;26652;50.280;19.026;2022-07-06T10:19:19;1.10;;;0.70;;
40919;SDS011;26652;50.280;19.026;2022-07-06T10:21:40;2.03;;;0.53;;
40919;SDS011;26652;50.280;19.026;2022-07-06T10:24:04;1.00;;;0.50;;
40919;SDS011;26652;50.280;19.026;2022-07-06T10:26:24;1.43;;;1.07;;
40919;SDS011;26652;50.280;19.026;2022-07-06T10:28:45;1.70;;;0.97;;
40919;SDS011;26652;50.280;19.026;2022-07-06T10:30:55;1.20;;;0.50;;
40919;SDS011;26652;50.280;19.026;2022-07-06T10:33:09;1.23;;;0.50;;
40919;SDS011;26652;50.280;19.026;2022-07-06T10:35:33;0.90;;;0.30;;
40919;SDS011;26652;50.280;19.026;2022-07-06T10:38:08;2.60;;;1.10;;
40919;SDS011;26652;50.280;19.026;2022-07-06T10:40:32;0.90;;;0.20;;
40919;SDS011;26652;50.280;19.026;2022-07-06T10:42:39;1.20;;;0.77;;
40919;SDS011;26652;50.280;19.026;2022-07-06T10:45:17;1.20;;;0.90;;
40919;SDS011;26652;50.280;19.026;2022-07-06T10:50:38;1.20;;;0.93;;
40919;SDS011;26652;50.280;19.026;2022-07-06T10:55:39;1.00;;;0.30;;
40919;SDS011;26652;50.280;19.026;2022-07-06T10:58:34;0.90;;;0.30;;
40919;SDS011;26652;50.280;19.026;2022-07-06T11:01:01;1.57;;;0.73;;
40919;SDS011;26652;50.280;19.026;2022-07-06T11:06:17;0.90;;;0.30;;
40919;SDS011;26652;50.280;19.026;2022-07-06T11:08:46;1.63;;;0.97;;
40919;SDS011;26652;50.280;19.026;2022-07-06T11:11:12;1.50;;;1.13;;
40919;SDS011;26652;50.280;19.026;2022-07-06T11:13:28;0.90;;;0.30;;
40919;SDS011;26652;50.280;19.026;2022-07-06T11:16:01;1.23;;;1.10;;
40919;SDS011;26652;50.280;19.026;2022-07-06T11:18:11;1.73;;;1.03;;
40919;SDS011;26652;50.280;19.026;2022-07-06T11:20:38;1.20;;;0.50;;
40919;SDS011;26652;50.280;19.026;2022-07-06T11:23:01;1.00;;;0.50;;
40919;SDS011;26652;50.280;19.026;2022-07-06T11:25:33;0.90;;;0.30;;
40919;SDS011;26652;50.280;19.026;2022-07-06T11:27:42;0.90;;;0.30;;
40919;SDS011;26652;50.280;19.026;2022-07-06T11:29:59;0.97;;;0.47;;
40919;SDS011;26652;50.280;19.026;2022-07-06T11:32:27;0.90;;;0.20;;
40919;SDS011;26652;50.280;19.026;2022-07-06T11:34:50;0.90;;;0.20;;
40919;SDS011;26652;50.280;19.026;2022-07-06T11:36:58;1.00;;;0.30;;
40919;SDS011;26652;50.280;19.026;2022-07-06T11:39:26;1.00;;;0.40;;
40919;SDS011;26652;50.280;19.026;2022-07-06T11:41:54;1.00;;;0.30;;
40919;SDS011;26652;50.280;19.026;2022-07-06T11:44:01;0.90;;;0.30;;
40919;SDS011;26652;50.280;19.026;2022-07-06T11:46:32;0.90;;;0.30;;
40919;SDS011;26652;50.280;19.026;2022-07-06T11:49:00;1.77;;;0.67;;
40919;SDS011;26652;50.280;19.026;2022-07-06T11:51:25;1.07;;;0.33;;
40919;SDS011;26652;50.280;19.026;2022-07-06T11:53:47;0.90;;;0.20;;
40919;SDS011;26652;50.280;19.026;2022-07-06T11:56:09;0.90;;;0.20;;
40919;SDS011;26652;50.280;19.026;2022-07-06T11:58:21;0.90;;;0.30;;
40919;SDS011;26652;50.280;19.026;2022-07-06T12:01:04;1.00;;;0.30;;
40919;SDS011;26652;50.280;19.026;2022-07-06T12:03:28;1.00;;;0.43;;
40919;SDS011;26652;50.280;19.026;2022-07-06T12:05:51;0.90;;;0.30;;
40919;SDS011;26652;50.280;19.026;2022-07-06T12:08:25;0.90;;;0.20;;
40919;SDS011;26652;50.280;19.026;2022-07-06T12:11:05;1.10;;;0.40;;
40919;SDS011;26652;50.280;19.026;2022-07-06T12:13:36;1.00;;;0.50;;
40919;SDS011;26652;50.280;19.026;2022-07-06T12:16:08;0.90;;;0.20;;
40919;SDS011;26652;50.280;19.026;2022-07-06T12:18:36;1.33;;;0.97;;
40919;SDS011;26652;50.280;19.026;2022-07-06T12:21:01;1.20;;;0.50;;
40919;SDS011;26652;50.280;19.026;2022-07-06T12:23:39;1.53;;;0.60;;
40919;SDS011;26652;50.280;19.026;2022-07-06T12:26:04;1.60;;;0.63;;
40919;SDS011;26652;50.280;19.026;2022-07-06T12:28:29;0.90;;;0.30;;
40919;SDS011;26652;50.280;19.026;2022-07-06T12:30:52;1.53;;;0.70;;
40919;SDS011;26652;50.280;19.026;2022-07-06T12:33:15;1.00;;;0.40;;
40919;SDS011;26652;50.280;19.026;2022-07-06T12:35:38;0.90;;;0.30;;
40919;SDS011;26652;50.280;19.026;2022-07-06T12:37:55;3.20;;;0.70;;
40919;SDS011;26652;50.280;19.026;2022-07-06T12:40:19;1.27;;;0.50;;
40919;SDS011;26652;50.280;19.026;2022-07-06T12:42:54;1.00;;;0.40;;
40919;SDS011;26652;50.280;19.026;2022-07-06T12:45:27;1.30;;;0.50;;
40919;SDS011;26652;50.280;19.026;2022-07-06T12:48:02;0.90;;;0.40;;
40919;SDS011;26652;50.280;19.026;2022-07-06T12:50:36;1.03;;;0.50;;
40919;SDS011;26652;50.280;19.026;2022-07-06T12:52:42;1.00;;;0.40;;
40919;SDS011;26652;50.280;19.026;2022-07-06T12:55:07;1.00;;;0.40;;
40919;SDS011;26652;50.280;19.026;2022-07-06T12:57:48;0.90;;;0.30;;
40919;SDS011;26652;50.280;19.026;2022-07-06T13:00:11;1.07;;;0.47;;
40919;SDS011;26652;50.280;19.026;2022-07-06T13:02:48;1.07;;;0.53;;
40919;SDS011;26652;50.280;19.026;2022-07-06T13:05:03;1.00;;;0.40;;
40919;SDS011;26652;50.280;19.026;2022-07-06T13:07:18;1.40;;;0.67;;
40919;SDS011;26652;50.280;19.026;2022-07-06T13:09:57;0.90;;;0.30;;
40919;SDS011;26652;50.280;19.026;2022-07-06T13:12:24;0.90;;;0.40;;
40919;SDS011;26652;50.280;19.026;2022-07-06T13:15:05;1.00;;;0.43;;
40919;SDS011;26652;50.280;19.026;2022-07-06T13:17:36;5.43;;;1.17;;
40919;SDS011;26652;50.280;19.026;2022-07-06T13:19:57;1.53;;;1.13;;
40919;SDS011;26652;50.280;19.026;2022-07-06T13:22:12;1.00;;;0.40;;
40919;SDS011;26652;50.280;19.026;2022-07-06T13:24:41;1.00;;;0.47;;
40919;SDS011;26652;50.280;19.026;2022-07-06T13:26:49;0.90;;;0.30;;
40919;SDS011;26652;50.280;19.026;2022-07-06T13:29:08;0.97;;;0.30;;
40919;SDS011;26652;50.280;19.026;2022-07-06T13:31:35;1.00;;;0.50;;
40919;SDS011;26652;50.280;19.026;2022-07-06T13:33:42;1.27;;;0.70;;
40919;SDS011;26652;50.280;19.026;2022-07-06T13:36:05;1.00;;;0.37;;
40919;SDS011;26652;50.280;19.026;2022-07-06T13:38:25;0.93;;;0.40;;
40919;SDS011;26652;50.280;19.026;2022-07-06T13:40:34;1.07;;;0.50;;
40919;SDS011;26652;50.280;19.026;2022-07-06T13:42:55;0.90;;;0.30;;
40919;SDS011;26652;50.280;19.026;2022-07-06T13:45:27;1.20;;;0.70;;
40919;SDS011;26652;50.280;19.026;2022-07-06T13:47:50;1.00;;;0.30;;
40919;SDS011;26652;50.280;19.026;2022-07-06T13:50:12;0.90;;;0.20;;
40919;SDS011;26652;50.280;19.026;2022-07-06T13:52:41;0.90;;;0.20;;
40919;SDS011;26652;50.280;19.026;2022-07-06T13:55:12;0.90;;;0.30;;
40919;SDS011;26652;50.280;19.026;2022-07-06T13:57:20;0.90;;;0.20;;
40919;SDS011;26652;50.280;19.026;2022-07-06T13:59:47;1.00;;;0.30;;
40919;SDS011;26652;50.280;19.026;2022-07-06T14:02:26;0.90;;;0.30;;
40919;SDS011;26652;50.280;19.026;2022-07-06T14:04:53;1.37;;;0.57;;
40919;SDS011;26652;50.280;19.026;2022-07-06T14:07:18;0.90;;;0.30;;
40919;SDS011;26652;50.280;19.026;2022-07-06T14:09:25;0.90;;;0.30;;
40919;SDS011;26652;50.280;19.026;2022-07-06T14:11:48;1.27;;;0.50;;
40919;SDS011;26652;50.280;19.026;2022-07-06T14:13:57;1.00;;;0.40;;
40919;SDS011;26652;50.280;19.026;2022-07-06T14:16:25;1.10;;;0.37;;
40919;SDS011;26652;50.280;19.026;2022-07-06T14:18:51;0.90;;;0.27;;
40919;SDS011;26652;50.280;19.026;2022-07-06T14:21:24;2.33;;;0.97;;
40919;SDS011;26652;50.280;19.026;2022-07-06T14:23:52;1.00;;;0.30;;
40919;SDS011;26652;50.280;19.026;2022-07-06T14:26:23;1.20;;;0.40;;